TAF KHLN
KHLN 090538Z 0906/1006 28012G20KT P6SM VCSH FEW025 BKN050 FM091100 28009KT P6SM SCT050 BKN100=
METAR KHLN
WC KHLN
WS KHLN
WV KHLN